sensor_id;sensor_type;location;lat;lon;timestamp;temperature;humidity
15947;DHT22;8072;52.554;7.966;2023-07-22T00:01:25;13.90;99.90
15947;DHT22;8072;52.554;7.966;2023-07-22T00:03:51;13.80;99.90
15947;DHT22;8072;52.554;7.966;2023-07-22T00:06:17;13.90;99.90
15947;DHT22;8072;52.554;7.966;2023-07-22T00:08:43;13.80;99.90
15947;DHT22;8072;52.554;7.966;2023-07-22T00:11:09;13.80;99.90
15947;DHT22;8072;52.554;7.966;2023-07-22T00:13:35;13.80;99.90
15947;DHT22;8072;52.554;7.966;2023-07-22T00:16:01;13.80;99.90
15947;DHT22;8072;52.554;7.966;2023-07-22T00:18:29;13.80;99.90
15947;DHT22;8072;52.554;7.966;2023-07-22T00:20:56;13.80;99.90
15947;DHT22;8072;52.554;7.966;2023-07-22T00:23:22;13.80;99.90
15947;DHT22;8072;52.554;7.966;2023-07-22T00:25:48;13.70;99.90
15947;DHT22;8072;52.554;7.966;2023-07-22T00:28:15;13.70;99.90
15947;DHT22;8072;52.554;7.966;2023-07-22T00:30:42;13.70;99.90
15947;DHT22;8072;52.554;7.966;2023-07-22T00:33:08;13.60;99.90
15947;DHT22;8072;52.554;7.966;2023-07-22T00:35:34;13.60;99.90
15947;DHT22;8072;52.554;7.966;2023-07-22T00:38:00;13.50;99.90
15947;DHT22;8072;52.554;7.966;2023-07-22T00:40:27;13.50;99.90
15947;DHT22;8072;52.554;7.966;2023-07-22T00:42:53;13.50;99.90
15947;DHT22;8072;52.554;7.966;2023-07-22T00:45:19;13.40;99.90
15947;DHT22;8072;52.554;7.966;2023-07-22T00:47:45;13.40;99.90
15947;DHT22;8072;52.554;7.966;2023-07-22T00:50:12;13.40;99.90
15947;DHT22;8072;52.554;7.966;2023-07-22T00:52:38;13.40;99.90
15947;DHT22;8072;52.554;7.966;2023-07-22T00:55:05;13.30;99.90
15947;DHT22;8072;52.554;7.966;2023-07-22T00:57:31;13.30;99.90
15947;DHT22;8072;52.554;7.966;2023-07-22T00:59:57;13.30;99.90
15947;DHT22;8072;52.554;7.966;2023-07-22T01:02:23;13.30;99.90
15947;DHT22;8072;52.554;7.966;2023-07-22T01:04:50;13.20;99.90
15947;DHT22;8072;52.554;7.966;2023-07-22T01:07:16;13.20;99.90
15947;DHT22;8072;52.554;7.966;2023-07-22T01:09:43;13.20;99.90
15947;DHT22;8072;52.554;7.966;2023-07-22T01:12:09;13.20;99.90
15947;DHT22;8072;52.554;7.966;2023-07-22T01:14:37;13.10;99.90
15947;DHT22;8072;52.554;7.966;2023-07-22T01:17:04;13.10;99.90
15947;DHT22;8072;52.554;7.966;2023-07-22T01:19:30;13.10;99.90
15947;DHT22;8072;52.554;7.966;2023-07-22T01:22:00;13.10;99.90
15947;DHT22;8072;52.554;7.966;2023-07-22T01:24:29;13.00;99.90
15947;DHT22;8072;52.554;7.966;2023-07-22T01:26:55;13.00;99.90
15947;DHT22;8072;52.554;7.966;2023-07-22T01:29:22;13.00;99.90
15947;DHT22;8072;52.554;7.966;2023-07-22T01:31:52;12.90;99.90
15947;DHT22;8072;52.554;7.966;2023-07-22T01:34:19;12.90;99.90
15947;DHT22;8072;52.554;7.966;2023-07-22T01:36:46;12.90;99.90
15947;DHT22;8072;52.554;7.966;2023-07-22T01:39:16;12.90;99.90
15947;DHT22;8072;52.554;7.966;2023-07-22T01:41:42;12.80;99.90
15947;DHT22;8072;52.554;7.966;2023-07-22T01:44:08;12.80;99.90
15947;DHT22;8072;52.554;7.966;2023-07-22T01:46:34;12.90;99.90
15947;DHT22;8072;52.554;7.966;2023-07-22T01:49:03;12.90;99.90
15947;DHT22;8072;52.554;7.966;2023-07-22T01:51:30;12.90;99.90
15947;DHT22;8072;52.554;7.966;2023-07-22T01:53:56;12.90;99.90
15947;DHT22;8072;52.554;7.966;2023-07-22T01:56:22;12.90;99.90
15947;DHT22;8072;52.554;7.966;2023-07-22T01:58:48;12.90;99.90
15947;DHT22;8072;52.554;7.966;2023-07-22T02:01:14;12.90;99.90
15947;DHT22;8072;52.554;7.966;2023-07-22T02:03:42;12.90;99.90
15947;DHT22;8072;52.554;7.966;2023-07-22T02:06:07;12.90;99.90
15947;DHT22;8072;52.554;7.966;2023-07-22T02:08:33;12.90;99.90
15947;DHT22;8072;52.554;7.966;2023-07-22T02:11:03;13.00;99.90
15947;DHT22;8072;52.554;7.966;2023-07-22T02:13:33;13.00;99.90
15947;DHT22;8072;52.554;7.966;2023-07-22T02:16:01;13.00;99.90
15947;DHT22;8072;52.554;7.966;2023-07-22T02:18:27;13.00;99.90
15947;DHT22;8072;52.554;7.966;2023-07-22T02:20:54;13.00;99.90
15947;DHT22;8072;52.554;7.966;2023-07-22T02:23:20;12.90;99.90
15947;DHT22;8072;52.554;7.966;2023-07-22T02:25:50;12.90;99.90
15947;DHT22;8072;52.554;7.966;2023-07-22T02:28:17;12.90;99.90
15947;DHT22;8072;52.554;7.966;2023-07-22T02:30:47;12.90;99.90
15947;DHT22;8072;52.554;7.966;2023-07-22T02:33:13;12.90;99.90
15947;DHT22;8072;52.554;7.966;2023-07-22T02:35:41;12.90;99.90
15947;DHT22;8072;52.554;7.966;2023-07-22T02:38:07;12.80;99.90
15947;DHT22;8072;52.554;7.966;2023-07-22T02:40:39;12.80;99.90
15947;DHT22;8072;52.554;7.966;2023-07-22T02:43:05;12.80;99.90
15947;DHT22;8072;52.554;7.966;2023-07-22T02:45:33;12.80;99.90
15947;DHT22;8072;52.554;7.966;2023-07-22T02:47:59;12.80;99.90
15947;DHT22;8072;52.554;7.966;2023-07-22T02:50:26;12.80;99.90
15947;DHT22;8072;52.554;7.966;2023-07-22T02:52:51;12.80;99.90
15947;DHT22;8072;52.554;7.966;2023-07-22T02:55:18;12.70;99.90
15947;DHT22;8072;52.554;7.966;2023-07-22T02:57:47;12.70;99.90
15947;DHT22;8072;52.554;7.966;2023-07-22T03:00:15;12.70;99.90
15947;DHT22;8072;52.554;7.966;2023-07-22T03:02:58;12.70;99.90
15947;DHT22;8072;52.554;7.966;2023-07-22T03:05:29;12.70;99.90
15947;DHT22;8072;52.554;7.966;2023-07-22T03:07:57;12.70;99.90
15947;DHT22;8072;52.554;7.966;2023-07-22T03:10:23;12.60;99.90
15947;DHT22;8072;52.554;7.966;2023-07-22T03:12:51;12.60;99.90
15947;DHT22;8072;52.554;7.966;2023-07-22T03:15:25;12.60;99.90
15947;DHT22;8072;52.554;7.966;2023-07-22T03:17:52;12.60;99.90
15947;DHT22;8072;52.554;7.966;2023-07-22T03:20:18;12.60;99.90
15947;DHT22;8072;52.554;7.966;2023-07-22T03:22:45;12.60;99.90
15947;DHT22;8072;52.554;7.966;2023-07-22T03:25:13;12.60;99.90
15947;DHT22;8072;52.554;7.966;2023-07-22T03:27:39;12.60;99.90
15947;DHT22;8072;52.554;7.966;2023-07-22T03:30:05;12.60;99.90
15947;DHT22;8072;52.554;7.966;2023-07-22T03:32:42;12.50;99.90
15947;DHT22;8072;52.554;7.966;2023-07-22T03:35:08;12.50;99.90
15947;DHT22;8072;52.554;7.966;2023-07-22T03:37:38;12.50;99.90
15947;DHT22;8072;52.554;7.966;2023-07-22T03:40:04;12.50;99.90
15947;DHT22;8072;52.554;7.966;2023-07-22T03:42:48;12.50;99.90
15947;DHT22;8072;52.554;7.966;2023-07-22T03:45:14;12.50;99.90
15947;DHT22;8072;52.554;7.966;2023-07-22T03:47:44;12.50;99.90
15947;DHT22;8072;52.554;7.966;2023-07-22T03:50:11;12.50;99.90
15947;DHT22;8072;52.554;7.966;2023-07-22T03:52:37;12.50;99.90
15947;DHT22;8072;52.554;7.966;2023-07-22T03:55:04;12.50;99.90
15947;DHT22;8072;52.554;7.966;2023-07-22T03:57:31;12.50;99.90
15947;DHT22;8072;52.554;7.966;2023-07-22T03:59:57;12.60;99.90
15947;DHT22;8072;52.554;7.966;2023-07-22T04:02:23;12.60;99.90
15947;DHT22;8072;52.554;7.966;2023-07-22T04:04:53;12.60;99.90
15947;DHT22;8072;52.554;7.966;2023-07-22T04:07:20;12.70;99.90
15947;DHT22;8072;52.554;7.966;2023-07-22T04:09:47;12.70;99.90
15947;DHT22;8072;52.554;7.966;2023-07-22T04:12:12;12.80;99.90
15947;DHT22;8072;52.554;7.966;2023-07-22T04:14:38;12.70;99.90
15947;DHT22;8072;52.554;7.966;2023-07-22T04:17:04;12.80;99.90
15947;DHT22;8072;52.554;7.966;2023-07-22T04:19:30;12.80;99.90
15947;DHT22;8072;52.554;7.966;2023-07-22T04:21:57;12.80;99.90
15947;DHT22;8072;52.554;7.966;2023-07-22T04:24:23;12.80;99.90
15947;DHT22;8072;52.554;7.966;2023-07-22T04:26:50;12.80;99.90
15947;DHT22;8072;52.554;7.966;2023-07-22T04:29:16;12.80;99.90
15947;DHT22;8072;52.554;7.966;2023-07-22T04:31:42;12.80;99.90
15947;DHT22;8072;52.554;7.966;2023-07-22T04:34:08;12.90;99.90
15947;DHT22;8072;52.554;7.966;2023-07-22T04:36:34;12.90;99.90
15947;DHT22;8072;52.554;7.966;2023-07-22T04:39:02;12.90;99.90
15947;DHT22;8072;52.554;7.966;2023-07-22T04:41:30;12.90;99.90
15947;DHT22;8072;52.554;7.966;2023-07-22T04:43:56;12.90;99.90
15947;DHT22;8072;52.554;7.966;2023-07-22T04:46:24;12.90;99.90
15947;DHT22;8072;52.554;7.966;2023-07-22T04:48:49;12.90;99.90
15947;DHT22;8072;52.554;7.966;2023-07-22T04:51:15;13.00;99.90
15947;DHT22;8072;52.554;7.966;2023-07-22T04:53:41;13.00;99.90
15947;DHT22;8072;52.554;7.966;2023-07-22T04:56:07;13.00;99.90
15947;DHT22;8072;52.554;7.966;2023-07-22T04:58:32;13.00;99.90
15947;DHT22;8072;52.554;7.966;2023-07-22T05:00:58;13.00;99.90
15947;DHT22;8072;52.554;7.966;2023-07-22T05:03:24;13.10;99.90
15947;DHT22;8072;52.554;7.966;2023-07-22T05:05:52;13.10;99.90
15947;DHT22;8072;52.554;7.966;2023-07-22T05:08:17;13.20;99.90
15947;DHT22;8072;52.554;7.966;2023-07-22T05:10:43;13.20;99.90
15947;DHT22;8072;52.554;7.966;2023-07-22T05:13:09;13.20;99.90
15947;DHT22;8072;52.554;7.966;2023-07-22T05:15:34;13.20;99.90
15947;DHT22;8072;52.554;7.966;2023-07-22T05:18:00;13.20;99.90
15947;DHT22;8072;52.554;7.966;2023-07-22T05:20:27;13.10;99.90
15947;DHT22;8072;52.554;7.966;2023-07-22T05:22:53;13.20;99.90
15947;DHT22;8072;52.554;7.966;2023-07-22T05:25:19;13.20;99.90
15947;DHT22;8072;52.554;7.966;2023-07-22T05:27:44;13.20;99.90
15947;DHT22;8072;52.554;7.966;2023-07-22T05:30:10;13.30;99.90
15947;DHT22;8072;52.554;7.966;2023-07-22T05:32:36;13.40;99.90
15947;DHT22;8072;52.554;7.966;2023-07-22T05:35:02;13.40;99.90
15947;DHT22;8072;52.554;7.966;2023-07-22T05:37:30;13.40;99.90
15947;DHT22;8072;52.554;7.966;2023-07-22T05:39:56;13.40;99.90
15947;DHT22;8072;52.554;7.966;2023-07-22T05:42:22;13.40;99.90
15947;DHT22;8072;52.554;7.966;2023-07-22T05:44:48;13.50;99.90
15947;DHT22;8072;52.554;7.966;2023-07-22T05:47:14;13.50;99.90
15947;DHT22;8072;52.554;7.966;2023-07-22T05:49:40;13.50;99.90
15947;DHT22;8072;52.554;7.966;2023-07-22T05:52:06;13.60;99.90
15947;DHT22;8072;52.554;7.966;2023-07-22T05:54:32;13.60;99.90
15947;DHT22;8072;52.554;7.966;2023-07-22T05:56:57;13.70;99.90
15947;DHT22;8072;52.554;7.966;2023-07-22T05:59:23;13.70;99.90
15947;DHT22;8072;52.554;7.966;2023-07-22T06:01:49;13.70;99.90
15947;DHT22;8072;52.554;7.966;2023-07-22T06:04:15;13.80;99.90
15947;DHT22;8072;52.554;7.966;2023-07-22T06:06:41;13.80;99.90
15947;DHT22;8072;52.554;7.966;2023-07-22T06:09:06;13.80;99.90
15947;DHT22;8072;52.554;7.966;2023-07-22T06:11:32;13.90;99.90
15947;DHT22;8072;52.554;7.966;2023-07-22T06:13:58;13.90;99.90
15947;DHT22;8072;52.554;7.966;2023-07-22T06:16:23;13.90;99.90
15947;DHT22;8072;52.554;7.966;2023-07-22T06:18:49;14.00;99.90
15947;DHT22;8072;52.554;7.966;2023-07-22T06:21:15;14.10;99.90
15947;DHT22;8072;52.554;7.966;2023-07-22T06:23:41;14.10;99.90
15947;DHT22;8072;52.554;7.966;2023-07-22T06:26:07;14.00;99.90
15947;DHT22;8072;52.554;7.966;2023-07-22T06:28:33;14.00;99.90
15947;DHT22;8072;52.554;7.966;2023-07-22T06:30:58;14.00;99.90
15947;DHT22;8072;52.554;7.966;2023-07-22T06:33:24;14.10;99.90
15947;DHT22;8072;52.554;7.966;2023-07-22T06:35:50;14.10;99.90
15947;DHT22;8072;52.554;7.966;2023-07-22T06:38:15;14.20;99.90
15947;DHT22;8072;52.554;7.966;2023-07-22T06:40:41;14.20;99.90
15947;DHT22;8072;52.554;7.966;2023-07-22T06:43:07;14.30;99.90
15947;DHT22;8072;52.554;7.966;2023-07-22T06:45:33;14.40;99.90
15947;DHT22;8072;52.554;7.966;2023-07-22T06:47:59;14.50;99.90
15947;DHT22;8072;52.554;7.966;2023-07-22T06:50:25;14.60;99.90
15947;DHT22;8072;52.554;7.966;2023-07-22T06:52:50;14.60;99.90
15947;DHT22;8072;52.554;7.966;2023-07-22T06:55:16;14.70;99.90
15947;DHT22;8072;52.554;7.966;2023-07-22T06:57:42;14.70;99.90
15947;DHT22;8072;52.554;7.966;2023-07-22T07:00:09;14.80;99.90
15947;DHT22;8072;52.554;7.966;2023-07-22T07:02:35;14.80;99.90
15947;DHT22;8072;52.554;7.966;2023-07-22T07:05:01;14.90;99.90
15947;DHT22;8072;52.554;7.966;2023-07-22T07:07:27;14.90;99.90
15947;DHT22;8072;52.554;7.966;2023-07-22T07:09:53;15.00;99.90
15947;DHT22;8072;52.554;7.966;2023-07-22T07:12:19;15.10;99.90
15947;DHT22;8072;52.554;7.966;2023-07-22T07:14:46;15.20;99.90
15947;DHT22;8072;52.554;7.966;2023-07-22T07:17:11;15.20;99.90
15947;DHT22;8072;52.554;7.966;2023-07-22T07:19:37;15.30;99.90
15947;DHT22;8072;52.554;7.966;2023-07-22T07:22:03;15.40;99.90
15947;DHT22;8072;52.554;7.966;2023-07-22T07:24:28;15.40;99.90
15947;DHT22;8072;52.554;7.966;2023-07-22T07:26:54;15.40;99.90
15947;DHT22;8072;52.554;7.966;2023-07-22T07:29:20;15.40;99.90
15947;DHT22;8072;52.554;7.966;2023-07-22T07:31:46;15.50;99.90
15947;DHT22;8072;52.554;7.966;2023-07-22T07:34:12;15.50;99.90
15947;DHT22;8072;52.554;7.966;2023-07-22T07:36:37;15.50;99.90
15947;DHT22;8072;52.554;7.966;2023-07-22T07:39:06;15.50;99.90
15947;DHT22;8072;52.554;7.966;2023-07-22T07:41:33;15.50;99.90
15947;DHT22;8072;52.554;7.966;2023-07-22T07:43:58;15.60;99.90
15947;DHT22;8072;52.554;7.966;2023-07-22T07:46:27;15.60;99.90
15947;DHT22;8072;52.554;7.966;2023-07-22T07:48:55;15.60;99.90
15947;DHT22;8072;52.554;7.966;2023-07-22T07:51:23;15.60;99.90
15947;DHT22;8072;52.554;7.966;2023-07-22T07:53:51;15.70;99.90
15947;DHT22;8072;52.554;7.966;2023-07-22T07:56:18;15.70;99.90
15947;DHT22;8072;52.554;7.966;2023-07-22T07:58:46;15.80;99.90
15947;DHT22;8072;52.554;7.966;2023-07-22T08:01:12;15.80;99.90
15947;DHT22;8072;52.554;7.966;2023-07-22T08:03:39;15.90;99.90
15947;DHT22;8072;52.554;7.966;2023-07-22T08:06:05;16.00;99.90
15947;DHT22;8072;52.554;7.966;2023-07-22T08:08:32;16.10;99.90
15947;DHT22;8072;52.554;7.966;2023-07-22T08:11:09;16.20;99.90
15947;DHT22;8072;52.554;7.966;2023-07-22T08:13:36;16.30;99.90
15947;DHT22;8072;52.554;7.966;2023-07-22T08:16:04;16.40;99.90
15947;DHT22;8072;52.554;7.966;2023-07-22T08:18:31;16.60;99.90
15947;DHT22;8072;52.554;7.966;2023-07-22T08:20:57;16.70;99.90
15947;DHT22;8072;52.554;7.966;2023-07-22T08:23:23;16.70;99.90
15947;DHT22;8072;52.554;7.966;2023-07-22T08:25:49;16.70;99.90
15947;DHT22;8072;52.554;7.966;2023-07-22T08:28:17;16.80;99.90
15947;DHT22;8072;52.554;7.966;2023-07-22T08:30:43;16.90;99.90
15947;DHT22;8072;52.554;7.966;2023-07-22T08:33:10;16.90;99.90
15947;DHT22;8072;52.554;7.966;2023-07-22T08:35:39;17.00;99.90
15947;DHT22;8072;52.554;7.966;2023-07-22T08:38:06;17.10;99.90
15947;DHT22;8072;52.554;7.966;2023-07-22T08:40:50;17.10;99.90
15947;DHT22;8072;52.554;7.966;2023-07-22T08:43:19;17.10;99.90
15947;DHT22;8072;52.554;7.966;2023-07-22T08:45:47;17.20;99.90
15947;DHT22;8072;52.554;7.966;2023-07-22T08:48:15;17.20;99.90
15947;DHT22;8072;52.554;7.966;2023-07-22T08:50:53;17.20;99.90
15947;DHT22;8072;52.554;7.966;2023-07-22T08:53:20;17.20;99.90
15947;DHT22;8072;52.554;7.966;2023-07-22T08:55:46;17.20;99.90
15947;DHT22;8072;52.554;7.966;2023-07-22T08:58:13;17.20;99.90
15947;DHT22;8072;52.554;7.966;2023-07-22T09:00:40;17.30;99.90
15947;DHT22;8072;52.554;7.966;2023-07-22T09:03:06;17.30;99.90
15947;DHT22;8072;52.554;7.966;2023-07-22T09:05:33;17.30;99.90
15947;DHT22;8072;52.554;7.966;2023-07-22T09:08:02;17.30;99.90
15947;DHT22;8072;52.554;7.966;2023-07-22T09:10:28;17.30;99.90
15947;DHT22;8072;52.554;7.966;2023-07-22T09:12:54;17.30;99.90
15947;DHT22;8072;52.554;7.966;2023-07-22T09:15:21;17.40;99.90
15947;DHT22;8072;52.554;7.966;2023-07-22T09:17:48;17.60;99.90
15947;DHT22;8072;52.554;7.966;2023-07-22T09:20:14;17.60;99.90
15947;DHT22;8072;52.554;7.966;2023-07-22T09:22:49;17.70;99.90
15947;DHT22;8072;52.554;7.966;2023-07-22T09:27:52;18.00;99.90
15947;DHT22;8072;52.554;7.966;2023-07-22T09:32:52;18.40;99.90
15947;DHT22;8072;52.554;7.966;2023-07-22T09:35:19;18.40;99.90
15947;DHT22;8072;52.554;7.966;2023-07-22T09:37:45;18.50;99.90
15947;DHT22;8072;52.554;7.966;2023-07-22T09:42:54;18.50;99.90
15947;DHT22;8072;52.554;7.966;2023-07-22T09:45:23;18.60;99.90
15947;DHT22;8072;52.554;7.966;2023-07-22T09:47:50;18.60;99.90
15947;DHT22;8072;52.554;7.966;2023-07-22T09:50:18;18.70;99.90
15947;DHT22;8072;52.554;7.966;2023-07-22T09:52:49;18.70;99.90
15947;DHT22;8072;52.554;7.966;2023-07-22T09:55:17;18.70;99.90
15947;DHT22;8072;52.554;7.966;2023-07-22T09:57:48;18.80;99.90
15947;DHT22;8072;52.554;7.966;2023-07-22T10:00:16;18.90;99.90
15947;DHT22;8072;52.554;7.966;2023-07-22T10:02:48;18.90;99.90
15947;DHT22;8072;52.554;7.966;2023-07-22T10:05:18;19.00;99.90
15947;DHT22;8072;52.554;7.966;2023-07-22T10:07:49;19.00;99.90
15947;DHT22;8072;52.554;7.966;2023-07-22T10:10:37;18.90;99.90
15947;DHT22;8072;52.554;7.966;2023-07-22T10:13:03;18.90;99.90
15947;DHT22;8072;52.554;7.966;2023-07-22T10:15:31;18.90;99.90
15947;DHT22;8072;52.554;7.966;2023-07-22T10:18:02;18.90;99.90
15947;DHT22;8072;52.554;7.966;2023-07-22T10:20:28;19.00;99.90
15947;DHT22;8072;52.554;7.966;2023-07-22T10:22:55;19.00;99.90
15947;DHT22;8072;52.554;7.966;2023-07-22T10:25:22;19.00;99.90
15947;DHT22;8072;52.554;7.966;2023-07-22T10:27:49;19.00;99.90
15947;DHT22;8072;52.554;7.966;2023-07-22T10:30:16;19.10;99.90
15947;DHT22;8072;52.554;7.966;2023-07-22T10:32:50;19.10;99.90
15947;DHT22;8072;52.554;7.966;2023-07-22T10:35:40;19.10;99.90
15947;DHT22;8072;52.554;7.966;2023-07-22T10:40:51;19.10;99.90
15947;DHT22;8072;52.554;7.966;2023-07-22T10:43:19;19.00;99.90
15947;DHT22;8072;52.554;7.966;2023-07-22T10:45:57;18.90;99.90
15947;DHT22;8072;52.554;7.966;2023-07-22T10:48:27;18.90;99.90
15947;DHT22;8072;52.554;7.966;2023-07-22T10:51:12;18.90;99.90
15947;DHT22;8072;52.554;7.966;2023-07-22T10:53:46;18.80;99.90
15947;DHT22;8072;52.554;7.966;2023-07-22T10:56:19;18.80;99.90
15947;DHT22;8072;52.554;7.966;2023-07-22T11:01:26;18.80;99.90
15947;DHT22;8072;52.554;7.966;2023-07-22T11:11:56;19.00;99.90
15947;DHT22;8072;52.554;7.966;2023-07-22T11:14:27;19.00;99.90
15947;DHT22;8072;52.554;7.966;2023-07-22T11:16:54;19.00;99.90
15947;DHT22;8072;52.554;7.966;2023-07-22T11:19:23;19.10;99.90
15947;DHT22;8072;52.554;7.966;2023-07-22T11:21:50;19.10;99.90
15947;DHT22;8072;52.554;7.966;2023-07-22T11:24:16;19.10;99.90
15947;DHT22;8072;52.554;7.966;2023-07-22T11:26:42;19.20;99.90
15947;DHT22;8072;52.554;7.966;2023-07-22T11:29:09;19.30;99.90
15947;DHT22;8072;52.554;7.966;2023-07-22T11:31:40;19.30;99.90
15947;DHT22;8072;52.554;7.966;2023-07-22T11:34:10;19.40;99.90
15947;DHT22;8072;52.554;7.966;2023-07-22T11:36:36;19.40;99.90
15947;DHT22;8072;52.554;7.966;2023-07-22T11:41:29;19.50;99.90
15947;DHT22;8072;52.554;7.966;2023-07-22T11:43:59;19.50;99.90
15947;DHT22;8072;52.554;7.966;2023-07-22T11:46:26;19.60;99.90
15947;DHT22;8072;52.554;7.966;2023-07-22T11:48:53;19.60;99.90
15947;DHT22;8072;52.554;7.966;2023-07-22T11:51:23;19.60;99.90
15947;DHT22;8072;52.554;7.966;2023-07-22T11:53:54;19.70;99.90
15947;DHT22;8072;52.554;7.966;2023-07-22T11:56:27;19.70;99.90
15947;DHT22;8072;52.554;7.966;2023-07-22T11:58:54;19.70;99.90
15947;DHT22;8072;52.554;7.966;2023-07-22T12:01:20;19.70;99.90
15947;DHT22;8072;52.554;7.966;2023-07-22T12:03:47;19.70;99.90
15947;DHT22;8072;52.554;7.966;2023-07-22T12:06:14;19.70;99.90
15947;DHT22;8072;52.554;7.966;2023-07-22T12:08:45;19.70;99.90
15947;DHT22;8072;52.554;7.966;2023-07-22T12:11:24;19.90;99.90
15947;DHT22;8072;52.554;7.966;2023-07-22T12:16:30;19.90;99.90
15947;DHT22;8072;52.554;7.966;2023-07-22T12:18:55;19.90;99.90
15947;DHT22;8072;52.554;7.966;2023-07-22T12:21:21;19.80;99.90
15947;DHT22;8072;52.554;7.966;2023-07-22T12:23:47;19.70;99.90
15947;DHT22;8072;52.554;7.966;2023-07-22T12:26:13;19.60;99.90
15947;DHT22;8072;52.554;7.966;2023-07-22T12:28:39;19.70;99.90
15947;DHT22;8072;52.554;7.966;2023-07-22T12:31:05;19.80;99.90
15947;DHT22;8072;52.554;7.966;2023-07-22T12:33:30;19.70;99.90
15947;DHT22;8072;52.554;7.966;2023-07-22T12:35:57;19.70;99.90
15947;DHT22;8072;52.554;7.966;2023-07-22T12:38:23;19.70;99.90
15947;DHT22;8072;52.554;7.966;2023-07-22T12:40:49;19.70;99.90
15947;DHT22;8072;52.554;7.966;2023-07-22T12:43:15;19.60;99.90
15947;DHT22;8072;52.554;7.966;2023-07-22T12:45:41;19.60;99.90
15947;DHT22;8072;52.554;7.966;2023-07-22T12:48:06;19.60;99.90
15947;DHT22;8072;52.554;7.966;2023-07-22T12:50:33;19.50;99.90
15947;DHT22;8072;52.554;7.966;2023-07-22T12:52:59;19.50;99.90
15947;DHT22;8072;52.554;7.966;2023-07-22T12:55:25;19.50;99.90
15947;DHT22;8072;52.554;7.966;2023-07-22T12:57:51;19.50;99.90
15947;DHT22;8072;52.554;7.966;2023-07-22T13:00:17;19.50;99.90
15947;DHT22;8072;52.554;7.966;2023-07-22T13:02:43;19.60;99.90
15947;DHT22;8072;52.554;7.966;2023-07-22T13:05:09;19.60;99.90
15947;DHT22;8072;52.554;7.966;2023-07-22T13:07:35;19.60;99.90
15947;DHT22;8072;52.554;7.966;2023-07-22T13:10:01;19.70;99.90
15947;DHT22;8072;52.554;7.966;2023-07-22T13:12:29;19.70;99.90
15947;DHT22;8072;52.554;7.966;2023-07-22T13:14:55;19.90;99.90
15947;DHT22;8072;52.554;7.966;2023-07-22T13:17:20;19.90;99.90
15947;DHT22;8072;52.554;7.966;2023-07-22T13:19:46;20.00;99.90
15947;DHT22;8072;52.554;7.966;2023-07-22T13:22:12;20.00;99.90
15947;DHT22;8072;52.554;7.966;2023-07-22T13:24:37;20.00;99.90
15947;DHT22;8072;52.554;7.966;2023-07-22T13:27:04;20.00;99.90
15947;DHT22;8072;52.554;7.966;2023-07-22T13:29:29;20.00;99.90
15947;DHT22;8072;52.554;7.966;2023-07-22T13:31:56;20.00;99.90
15947;DHT22;8072;52.554;7.966;2023-07-22T13:34:22;20.10;99.90
15947;DHT22;8072;52.554;7.966;2023-07-22T13:36:48;20.10;99.90
15947;DHT22;8072;52.554;7.966;2023-07-22T13:39:14;20.10;99.90
15947;DHT22;8072;52.554;7.966;2023-07-22T13:41:39;20.10;99.90
15947;DHT22;8072;52.554;7.966;2023-07-22T13:44:05;20.10;99.90
15947;DHT22;8072;52.554;7.966;2023-07-22T13:46:31;20.00;99.90
15947;DHT22;8072;52.554;7.966;2023-07-22T13:48:57;20.00;99.90
15947;DHT22;8072;52.554;7.966;2023-07-22T13:51:22;20.00;99.90
15947;DHT22;8072;52.554;7.966;2023-07-22T13:53:48;20.10;99.90
15947;DHT22;8072;52.554;7.966;2023-07-22T13:56:14;20.10;99.90
15947;DHT22;8072;52.554;7.966;2023-07-22T13:58:40;20.10;99.90
15947;DHT22;8072;52.554;7.966;2023-07-22T14:01:05;20.10;99.90
15947;DHT22;8072;52.554;7.966;2023-07-22T14:03:33;20.10;99.90
15947;DHT22;8072;52.554;7.966;2023-07-22T14:05:58;20.10;99.90
15947;DHT22;8072;52.554;7.966;2023-07-22T14:08:24;20.10;99.90
15947;DHT22;8072;52.554;7.966;2023-07-22T14:10:50;20.10;99.90
15947;DHT22;8072;52.554;7.966;2023-07-22T14:13:15;20.00;99.90
15947;DHT22;8072;52.554;7.966;2023-07-22T14:15:41;20.00;99.90
15947;DHT22;8072;52.554;7.966;2023-07-22T14:18:07;20.00;99.90
15947;DHT22;8072;52.554;7.966;2023-07-22T14:20:33;19.80;99.90
15947;DHT22;8072;52.554;7.966;2023-07-22T14:22:58;19.60;99.90
15947;DHT22;8072;52.554;7.966;2023-07-22T14:25:24;19.30;99.90
15947;DHT22;8072;52.554;7.966;2023-07-22T14:27:50;19.10;99.90
15947;DHT22;8072;52.554;7.966;2023-07-22T14:30:16;19.00;99.90
15947;DHT22;8072;52.554;7.966;2023-07-22T14:32:42;18.80;99.90
15947;DHT22;8072;52.554;7.966;2023-07-22T14:35:08;18.50;99.90
15947;DHT22;8072;52.554;7.966;2023-07-22T14:37:35;18.30;99.90
15947;DHT22;8072;52.554;7.966;2023-07-22T14:40:00;18.10;99.90
15947;DHT22;8072;52.554;7.966;2023-07-22T14:42:26;17.90;99.90
15947;DHT22;8072;52.554;7.966;2023-07-22T14:44:52;17.70;99.90
15947;DHT22;8072;52.554;7.966;2023-07-22T14:47:18;17.70;99.90
15947;DHT22;8072;52.554;7.966;2023-07-22T14:49:43;17.60;99.90
15947;DHT22;8072;52.554;7.966;2023-07-22T14:52:09;17.50;99.90
15947;DHT22;8072;52.554;7.966;2023-07-22T14:54:35;17.40;99.90
15947;DHT22;8072;52.554;7.966;2023-07-22T14:57:00;17.30;99.90
15947;DHT22;8072;52.554;7.966;2023-07-22T14:59:26;17.20;99.90
15947;DHT22;8072;52.554;7.966;2023-07-22T15:01:52;17.10;99.90
15947;DHT22;8072;52.554;7.966;2023-07-22T15:04:18;17.10;99.90
15947;DHT22;8072;52.554;7.966;2023-07-22T15:06:44;17.10;99.90
15947;DHT22;8072;52.554;7.966;2023-07-22T15:09:10;17.00;99.90
15947;DHT22;8072;52.554;7.966;2023-07-22T15:11:36;17.00;99.90
15947;DHT22;8072;52.554;7.966;2023-07-22T15:14:05;17.00;99.90
15947;DHT22;8072;52.554;7.966;2023-07-22T15:16:31;17.00;99.90
15947;DHT22;8072;52.554;7.966;2023-07-22T15:18:58;17.00;99.90
15947;DHT22;8072;52.554;7.966;2023-07-22T15:21:23;17.00;99.90
15947;DHT22;8072;52.554;7.966;2023-07-22T15:23:49;17.00;99.90
15947;DHT22;8072;52.554;7.966;2023-07-22T15:26:15;17.00;99.90
15947;DHT22;8072;52.554;7.966;2023-07-22T15:28:41;17.00;99.90
15947;DHT22;8072;52.554;7.966;2023-07-22T15:31:07;17.00;99.90
15947;DHT22;8072;52.554;7.966;2023-07-22T15:33:34;16.90;99.90
15947;DHT22;8072;52.554;7.966;2023-07-22T15:36:01;16.90;99.90
15947;DHT22;8072;52.554;7.966;2023-07-22T15:38:27;16.90;99.90
15947;DHT22;8072;52.554;7.966;2023-07-22T15:40:53;16.80;99.90
15947;DHT22;8072;52.554;7.966;2023-07-22T15:43:19;16.80;99.90
15947;DHT22;8072;52.554;7.966;2023-07-22T15:45:45;16.70;99.90
15947;DHT22;8072;52.554;7.966;2023-07-22T15:48:11;16.70;99.90
15947;DHT22;8072;52.554;7.966;2023-07-22T15:50:36;16.80;99.90
15947;DHT22;8072;52.554;7.966;2023-07-22T15:53:02;16.80;99.90
15947;DHT22;8072;52.554;7.966;2023-07-22T15:55:28;16.80;99.90
15947;DHT22;8072;52.554;7.966;2023-07-22T15:57:53;16.80;99.90
15947;DHT22;8072;52.554;7.966;2023-07-22T16:00:19;16.80;99.90
15947;DHT22;8072;52.554;7.966;2023-07-22T16:02:45;16.80;99.90
15947;DHT22;8072;52.554;7.966;2023-07-22T16:05:11;16.70;99.90
15947;DHT22;8072;52.554;7.966;2023-07-22T16:07:37;16.70;99.90
15947;DHT22;8072;52.554;7.966;2023-07-22T16:10:03;16.60;99.90